sensor_id;sensor_type;location;lat;lon;timestamp;temperature;humidity
15717;DHT22;7960;50.908;4.204;2023-09-19T00:00:19;15.60;99.90
15717;DHT22;7960;50.908;4.204;2023-09-19T00:02:53;15.50;99.90
15717;DHT22;7960;50.908;4.204;2023-09-19T00:05:22;15.50;99.90
15717;DHT22;7960;50.908;4.204;2023-09-19T00:07:50;15.40;99.90
15717;DHT22;7960;50.908;4.204;2023-09-19T00:10:20;15.40;99.90
15717;DHT22;7960;50.908;4.204;2023-09-19T00:12:48;15.40;99.90
15717;DHT22;7960;50.908;4.204;2023-09-19T00:15:17;15.30;99.90
15717;DHT22;7960;50.908;4.204;2023-09-19T00:17:44;15.40;99.90
15717;DHT22;7960;50.908;4.204;2023-09-19T00:20:14;15.40;99.90
15717;DHT22;7960;50.908;4.204;2023-09-19T00:22:43;15.30;99.90
15717;DHT22;7960;50.908;4.204;2023-09-19T00:25:11;15.40;99.90
15717;DHT22;7960;50.908;4.204;2023-09-19T00:27:41;15.30;99.90
15717;DHT22;7960;50.908;4.204;2023-09-19T00:30:09;15.30;99.90
15717;DHT22;7960;50.908;4.204;2023-09-19T00:32:41;15.40;99.90
15717;DHT22;7960;50.908;4.204;2023-09-19T00:35:09;15.40;99.90
15717;DHT22;7960;50.908;4.204;2023-09-19T00:37:38;15.40;99.90
15717;DHT22;7960;50.908;4.204;2023-09-19T00:40:07;15.40;99.90
15717;DHT22;7960;50.908;4.204;2023-09-19T00:42:38;15.40;99.90
15717;DHT22;7960;50.908;4.204;2023-09-19T00:45:06;15.40;99.90
15717;DHT22;7960;50.908;4.204;2023-09-19T00:47:35;15.30;99.90
15717;DHT22;7960;50.908;4.204;2023-09-19T00:50:04;15.30;99.90
15717;DHT22;7960;50.908;4.204;2023-09-19T00:52:33;15.30;99.90
15717;DHT22;7960;50.908;4.204;2023-09-19T00:55:05;15.30;99.90
15717;DHT22;7960;50.908;4.204;2023-09-19T00:57:32;15.20;99.90
15717;DHT22;7960;50.908;4.204;2023-09-19T01:00:00;15.30;99.90
15717;DHT22;7960;50.908;4.204;2023-09-19T01:02:31;15.20;99.90
15717;DHT22;7960;50.908;4.204;2023-09-19T01:04:58;15.20;99.90
15717;DHT22;7960;50.908;4.204;2023-09-19T01:07:26;15.10;99.90
15717;DHT22;7960;50.908;4.204;2023-09-19T01:09:55;15.10;99.90
15717;DHT22;7960;50.908;4.204;2023-09-19T01:12:30;15.10;99.90
15717;DHT22;7960;50.908;4.204;2023-09-19T01:15:03;15.10;99.90
15717;DHT22;7960;50.908;4.204;2023-09-19T01:17:34;15.10;99.90
15717;DHT22;7960;50.908;4.204;2023-09-19T01:20:25;15.10;99.90
15717;DHT22;7960;50.908;4.204;2023-09-19T01:23:03;15.10;99.90
15717;DHT22;7960;50.908;4.204;2023-09-19T01:28:52;15.00;99.90
15717;DHT22;7960;50.908;4.204;2023-09-19T01:31:25;15.10;99.90
15717;DHT22;7960;50.908;4.204;2023-09-19T01:34:00;15.10;99.90
15717;DHT22;7960;50.908;4.204;2023-09-19T01:36:28;15.00;99.90
15717;DHT22;7960;50.908;4.204;2023-09-19T01:38:57;15.00;99.90
15717;DHT22;7960;50.908;4.204;2023-09-19T01:41:33;15.00;99.90
15717;DHT22;7960;50.908;4.204;2023-09-19T01:44:06;14.90;99.90
15717;DHT22;7960;50.908;4.204;2023-09-19T01:46:40;14.80;99.90
15717;DHT22;7960;50.908;4.204;2023-09-19T01:49:18;14.90;99.90
15717;DHT22;7960;50.908;4.204;2023-09-19T01:51:56;14.90;99.90
15717;DHT22;7960;50.908;4.204;2023-09-19T01:54:31;14.90;99.90
15717;DHT22;7960;50.908;4.204;2023-09-19T01:57:05;14.90;99.90
15717;DHT22;7960;50.908;4.204;2023-09-19T01:59:37;15.00;99.90
15717;DHT22;7960;50.908;4.204;2023-09-19T02:02:10;15.00;99.90
15717;DHT22;7960;50.908;4.204;2023-09-19T02:04:38;15.00;99.90
15717;DHT22;7960;50.908;4.204;2023-09-19T02:07:06;15.00;99.90
15717;DHT22;7960;50.908;4.204;2023-09-19T02:09:34;15.00;99.90
15717;DHT22;7960;50.908;4.204;2023-09-19T02:12:04;15.00;99.90
15717;DHT22;7960;50.908;4.204;2023-09-19T02:14:31;14.90;99.90
15717;DHT22;7960;50.908;4.204;2023-09-19T02:16:59;15.00;99.90
15717;DHT22;7960;50.908;4.204;2023-09-19T02:19:28;15.10;99.90
15717;DHT22;7960;50.908;4.204;2023-09-19T02:21:56;15.10;99.90
15717;DHT22;7960;50.908;4.204;2023-09-19T02:24:23;15.10;99.90
15717;DHT22;7960;50.908;4.204;2023-09-19T02:26:52;15.00;99.90
15717;DHT22;7960;50.908;4.204;2023-09-19T02:29:20;15.00;99.90
15717;DHT22;7960;50.908;4.204;2023-09-19T02:31:47;14.90;99.90
15717;DHT22;7960;50.908;4.204;2023-09-19T02:34:14;14.90;99.90
15717;DHT22;7960;50.908;4.204;2023-09-19T02:36:43;14.80;99.90
15717;DHT22;7960;50.908;4.204;2023-09-19T02:39:11;14.80;99.90
15717;DHT22;7960;50.908;4.204;2023-09-19T02:41:38;14.90;99.90
15717;DHT22;7960;50.908;4.204;2023-09-19T02:44:07;14.80;99.90
15717;DHT22;7960;50.908;4.204;2023-09-19T02:46:34;14.90;99.90
15717;DHT22;7960;50.908;4.204;2023-09-19T02:49:02;15.00;99.90
15717;DHT22;7960;50.908;4.204;2023-09-19T02:51:30;15.00;99.90
15717;DHT22;7960;50.908;4.204;2023-09-19T02:53:59;15.00;99.90
15717;DHT22;7960;50.908;4.204;2023-09-19T02:56:26;15.00;99.90
15717;DHT22;7960;50.908;4.204;2023-09-19T02:58:53;14.90;99.90
15717;DHT22;7960;50.908;4.204;2023-09-19T03:01:20;14.90;99.90
15717;DHT22;7960;50.908;4.204;2023-09-19T03:03:48;14.90;99.90
15717;DHT22;7960;50.908;4.204;2023-09-19T03:06:15;14.90;99.90
15717;DHT22;7960;50.908;4.204;2023-09-19T03:08:45;14.90;99.90
15717;DHT22;7960;50.908;4.204;2023-09-19T03:11:15;15.00;99.90
15717;DHT22;7960;50.908;4.204;2023-09-19T03:13:50;15.00;99.90
15717;DHT22;7960;50.908;4.204;2023-09-19T03:16:17;14.90;99.90
15717;DHT22;7960;50.908;4.204;2023-09-19T03:18:44;14.90;99.90
15717;DHT22;7960;50.908;4.204;2023-09-19T03:21:13;14.90;99.90
15717;DHT22;7960;50.908;4.204;2023-09-19T03:23:40;14.90;99.90
15717;DHT22;7960;50.908;4.204;2023-09-19T03:26:11;14.90;99.90
15717;DHT22;7960;50.908;4.204;2023-09-19T03:28:40;14.70;99.90
15717;DHT22;7960;50.908;4.204;2023-09-19T03:31:08;14.80;99.90
15717;DHT22;7960;50.908;4.204;2023-09-19T03:33:35;14.70;99.90
15717;DHT22;7960;50.908;4.204;2023-09-19T03:36:03;14.60;99.90
15717;DHT22;7960;50.908;4.204;2023-09-19T03:38:31;14.50;99.90
15717;DHT22;7960;50.908;4.204;2023-09-19T03:40:59;14.50;99.90
15717;DHT22;7960;50.908;4.204;2023-09-19T03:43:26;14.60;99.90
15717;DHT22;7960;50.908;4.204;2023-09-19T03:45:55;14.60;99.90
15717;DHT22;7960;50.908;4.204;2023-09-19T03:48:22;14.60;99.90
15717;DHT22;7960;50.908;4.204;2023-09-19T03:50:48;14.60;99.90
15717;DHT22;7960;50.908;4.204;2023-09-19T03:53:16;14.60;99.90
15717;DHT22;7960;50.908;4.204;2023-09-19T03:55:45;14.60;99.90
15717;DHT22;7960;50.908;4.204;2023-09-19T03:58:12;14.60;99.90
15717;DHT22;7960;50.908;4.204;2023-09-19T04:00:39;14.50;99.90
15717;DHT22;7960;50.908;4.204;2023-09-19T04:03:08;14.50;99.90
15717;DHT22;7960;50.908;4.204;2023-09-19T04:05:36;14.50;99.90
15717;DHT22;7960;50.908;4.204;2023-09-19T04:08:05;14.40;99.90
15717;DHT22;7960;50.908;4.204;2023-09-19T04:10:32;14.30;99.90
15717;DHT22;7960;50.908;4.204;2023-09-19T04:12:59;14.40;99.90
15717;DHT22;7960;50.908;4.204;2023-09-19T04:15:26;14.30;99.90
15717;DHT22;7960;50.908;4.204;2023-09-19T04:17:53;14.30;99.90
15717;DHT22;7960;50.908;4.204;2023-09-19T04:20:21;14.40;99.90
15717;DHT22;7960;50.908;4.204;2023-09-19T04:22:49;14.40;99.90
15717;DHT22;7960;50.908;4.204;2023-09-19T04:25:16;14.30;99.90
15717;DHT22;7960;50.908;4.204;2023-09-19T04:27:44;14.30;99.90
15717;DHT22;7960;50.908;4.204;2023-09-19T04:30:12;14.20;99.90
15717;DHT22;7960;50.908;4.204;2023-09-19T04:32:40;14.20;99.90
15717;DHT22;7960;50.908;4.204;2023-09-19T04:35:09;14.20;99.90
15717;DHT22;7960;50.908;4.204;2023-09-19T04:37:39;14.20;99.90
15717;DHT22;7960;50.908;4.204;2023-09-19T04:40:08;14.20;99.90
15717;DHT22;7960;50.908;4.204;2023-09-19T04:42:39;14.20;99.90
15717;DHT22;7960;50.908;4.204;2023-09-19T04:45:07;14.20;99.90
15717;DHT22;7960;50.908;4.204;2023-09-19T04:47:36;14.20;99.90
15717;DHT22;7960;50.908;4.204;2023-09-19T04:50:08;14.20;99.90
15717;DHT22;7960;50.908;4.204;2023-09-19T04:52:40;14.20;99.90
15717;DHT22;7960;50.908;4.204;2023-09-19T04:55:10;14.10;99.90
15717;DHT22;7960;50.908;4.204;2023-09-19T04:57:43;14.20;99.90
15717;DHT22;7960;50.908;4.204;2023-09-19T05:00:12;14.20;99.90
15717;DHT22;7960;50.908;4.204;2023-09-19T05:02:40;14.10;99.90
15717;DHT22;7960;50.908;4.204;2023-09-19T05:05:08;14.20;99.90
15717;DHT22;7960;50.908;4.204;2023-09-19T05:07:42;14.20;99.90
15717;DHT22;7960;50.908;4.204;2023-09-19T05:10:09;14.20;99.90
15717;DHT22;7960;50.908;4.204;2023-09-19T05:12:37;14.20;99.90
15717;DHT22;7960;50.908;4.204;2023-09-19T05:15:05;14.20;99.90
15717;DHT22;7960;50.908;4.204;2023-09-19T05:17:34;14.30;99.90
15717;DHT22;7960;50.908;4.204;2023-09-19T05:20:01;14.20;99.90
15717;DHT22;7960;50.908;4.204;2023-09-19T05:22:42;14.10;99.90
15717;DHT22;7960;50.908;4.204;2023-09-19T05:25:09;14.20;99.90
15717;DHT22;7960;50.908;4.204;2023-09-19T05:27:36;14.30;99.90
15717;DHT22;7960;50.908;4.204;2023-09-19T05:30:04;14.30;99.90
15717;DHT22;7960;50.908;4.204;2023-09-19T05:32:32;14.30;99.90
15717;DHT22;7960;50.908;4.204;2023-09-19T05:34:59;14.20;99.90
15717;DHT22;7960;50.908;4.204;2023-09-19T05:37:25;14.20;99.90
15717;DHT22;7960;50.908;4.204;2023-09-19T05:39:54;14.30;99.90
15717;DHT22;7960;50.908;4.204;2023-09-19T05:42:21;14.30;99.90
15717;DHT22;7960;50.908;4.204;2023-09-19T05:44:48;14.30;99.90
15717;DHT22;7960;50.908;4.204;2023-09-19T05:47:15;14.20;99.90
15717;DHT22;7960;50.908;4.204;2023-09-19T05:49:42;14.30;99.90
15717;DHT22;7960;50.908;4.204;2023-09-19T05:52:09;14.20;99.90
15717;DHT22;7960;50.908;4.204;2023-09-19T05:54:36;14.30;99.90
15717;DHT22;7960;50.908;4.204;2023-09-19T05:57:05;14.30;99.90
15717;DHT22;7960;50.908;4.204;2023-09-19T05:59:32;14.20;99.90
15717;DHT22;7960;50.908;4.204;2023-09-19T06:01:59;14.20;99.90
15717;DHT22;7960;50.908;4.204;2023-09-19T06:04:26;14.20;99.90
15717;DHT22;7960;50.908;4.204;2023-09-19T06:06:53;14.10;99.90
15717;DHT22;7960;50.908;4.204;2023-09-19T06:09:20;14.20;99.90
15717;DHT22;7960;50.908;4.204;2023-09-19T06:11:48;14.30;99.90
15717;DHT22;7960;50.908;4.204;2023-09-19T06:14:17;14.30;99.90
15717;DHT22;7960;50.908;4.204;2023-09-19T06:16:44;14.20;99.90
15717;DHT22;7960;50.908;4.204;2023-09-19T06:19:12;14.30;99.90
15717;DHT22;7960;50.908;4.204;2023-09-19T06:21:45;14.40;99.90
15717;DHT22;7960;50.908;4.204;2023-09-19T06:24:13;14.40;99.90
15717;DHT22;7960;50.908;4.204;2023-09-19T06:26:41;14.40;99.90
15717;DHT22;7960;50.908;4.204;2023-09-19T06:29:09;14.40;99.90
15717;DHT22;7960;50.908;4.204;2023-09-19T06:31:40;14.40;99.90
15717;DHT22;7960;50.908;4.204;2023-09-19T06:34:08;14.50;99.90
15717;DHT22;7960;50.908;4.204;2023-09-19T06:36:35;14.50;99.90
15717;DHT22;7960;50.908;4.204;2023-09-19T06:39:02;14.50;99.90
15717;DHT22;7960;50.908;4.204;2023-09-19T06:41:29;14.60;99.90
15717;DHT22;7960;50.908;4.204;2023-09-19T06:43:57;14.60;99.90
15717;DHT22;7960;50.908;4.204;2023-09-19T06:46:24;14.50;99.90
15717;DHT22;7960;50.908;4.204;2023-09-19T06:48:52;14.60;99.90
15717;DHT22;7960;50.908;4.204;2023-09-19T06:51:19;14.60;99.90
15717;DHT22;7960;50.908;4.204;2023-09-19T06:53:46;14.60;99.90
15717;DHT22;7960;50.908;4.204;2023-09-19T06:56:13;14.60;99.90
15717;DHT22;7960;50.908;4.204;2023-09-19T06:58:40;14.60;99.90
15717;DHT22;7960;50.908;4.204;2023-09-19T07:01:09;14.70;99.90
15717;DHT22;7960;50.908;4.204;2023-09-19T07:03:36;14.70;99.90
15717;DHT22;7960;50.908;4.204;2023-09-19T07:06:04;14.70;99.90
15717;DHT22;7960;50.908;4.204;2023-09-19T07:08:31;14.70;99.90
15717;DHT22;7960;50.908;4.204;2023-09-19T07:10:58;14.80;99.90
15717;DHT22;7960;50.908;4.204;2023-09-19T07:13:25;14.80;99.90
15717;DHT22;7960;50.908;4.204;2023-09-19T07:15:52;14.90;99.90
15717;DHT22;7960;50.908;4.204;2023-09-19T07:18:19;14.90;99.90
15717;DHT22;7960;50.908;4.204;2023-09-19T07:20:47;15.00;99.90
15717;DHT22;7960;50.908;4.204;2023-09-19T07:23:17;15.00;99.90
15717;DHT22;7960;50.908;4.204;2023-09-19T07:25:46;15.00;99.90
15717;DHT22;7960;50.908;4.204;2023-09-19T07:28:14;15.10;99.90
15717;DHT22;7960;50.908;4.204;2023-09-19T07:30:41;15.20;99.90
15717;DHT22;7960;50.908;4.204;2023-09-19T07:33:08;15.30;99.90
15717;DHT22;7960;50.908;4.204;2023-09-19T07:35:37;15.30;99.90
15717;DHT22;7960;50.908;4.204;2023-09-19T07:38:05;15.30;99.90
15717;DHT22;7960;50.908;4.204;2023-09-19T07:40:34;15.30;99.90
15717;DHT22;7960;50.908;4.204;2023-09-19T07:43:02;15.40;99.90
15717;DHT22;7960;50.908;4.204;2023-09-19T07:45:30;15.40;99.90
15717;DHT22;7960;50.908;4.204;2023-09-19T07:47:57;15.40;99.90
15717;DHT22;7960;50.908;4.204;2023-09-19T07:50:26;15.50;99.90
15717;DHT22;7960;50.908;4.204;2023-09-19T07:52:53;15.60;99.90
15717;DHT22;7960;50.908;4.204;2023-09-19T07:55:21;15.50;99.90
15717;DHT22;7960;50.908;4.204;2023-09-19T07:57:52;15.60;99.90
15717;DHT22;7960;50.908;4.204;2023-09-19T08:00:19;15.60;99.90
15717;DHT22;7960;50.908;4.204;2023-09-19T08:02:46;15.60;99.90
15717;DHT22;7960;50.908;4.204;2023-09-19T08:05:14;15.50;99.90
15717;DHT22;7960;50.908;4.204;2023-09-19T08:07:43;15.70;99.90
15717;DHT22;7960;50.908;4.204;2023-09-19T08:10:11;15.80;99.90
15717;DHT22;7960;50.908;4.204;2023-09-19T08:12:40;15.90;99.90
15717;DHT22;7960;50.908;4.204;2023-09-19T08:15:13;15.90;99.90
15717;DHT22;7960;50.908;4.204;2023-09-19T08:17:40;16.10;99.90
15717;DHT22;7960;50.908;4.204;2023-09-19T08:20:08;16.10;99.90
15717;DHT22;7960;50.908;4.204;2023-09-19T08:22:43;16.10;99.90
15717;DHT22;7960;50.908;4.204;2023-09-19T08:25:11;16.20;99.90
15717;DHT22;7960;50.908;4.204;2023-09-19T08:27:38;16.20;99.90
15717;DHT22;7960;50.908;4.204;2023-09-19T08:30:06;16.30;99.90
15717;DHT22;7960;50.908;4.204;2023-09-19T08:32:34;16.40;99.90
15717;DHT22;7960;50.908;4.204;2023-09-19T08:35:02;16.50;99.90
15717;DHT22;7960;50.908;4.204;2023-09-19T08:37:30;16.50;99.90
15717;DHT22;7960;50.908;4.204;2023-09-19T08:39:58;16.60;99.90
15717;DHT22;7960;50.908;4.204;2023-09-19T08:42:24;16.70;99.90
15717;DHT22;7960;50.908;4.204;2023-09-19T08:44:52;16.80;99.90
15717;DHT22;7960;50.908;4.204;2023-09-19T08:47:26;16.80;99.90
15717;DHT22;7960;50.908;4.204;2023-09-19T08:50:01;16.90;99.90
15717;DHT22;7960;50.908;4.204;2023-09-19T08:52:34;17.00;99.90
15717;DHT22;7960;50.908;4.204;2023-09-19T08:55:06;17.00;99.90
15717;DHT22;7960;50.908;4.204;2023-09-19T08:57:36;17.10;99.90
15717;DHT22;7960;50.908;4.204;2023-09-19T09:00:08;17.20;99.90
15717;DHT22;7960;50.908;4.204;2023-09-19T09:02:37;17.30;99.90
15717;DHT22;7960;50.908;4.204;2023-09-19T09:05:07;17.40;99.90
15717;DHT22;7960;50.908;4.204;2023-09-19T09:07:36;17.30;99.90
15717;DHT22;7960;50.908;4.204;2023-09-19T09:10:03;17.30;99.90
15717;DHT22;7960;50.908;4.204;2023-09-19T09:12:30;17.40;99.90
15717;DHT22;7960;50.908;4.204;2023-09-19T09:14:57;17.40;99.90
15717;DHT22;7960;50.908;4.204;2023-09-19T09:17:24;17.50;99.90
15717;DHT22;7960;50.908;4.204;2023-09-19T09:19:52;17.50;99.90
15717;DHT22;7960;50.908;4.204;2023-09-19T09:22:21;17.50;99.90
15717;DHT22;7960;50.908;4.204;2023-09-19T09:24:52;17.50;99.90
15717;DHT22;7960;50.908;4.204;2023-09-19T09:27:21;17.50;99.90
15717;DHT22;7960;50.908;4.204;2023-09-19T09:29:50;17.50;99.90
15717;DHT22;7960;50.908;4.204;2023-09-19T09:32:19;17.50;99.90
15717;DHT22;7960;50.908;4.204;2023-09-19T09:34:49;17.50;99.90
15717;DHT22;7960;50.908;4.204;2023-09-19T09:37:17;17.60;99.90
15717;DHT22;7960;50.908;4.204;2023-09-19T09:39:56;17.70;99.90
15717;DHT22;7960;50.908;4.204;2023-09-19T09:42:30;17.60;99.90
15717;DHT22;7960;50.908;4.204;2023-09-19T09:45:14;17.50;99.90
15717;DHT22;7960;50.908;4.204;2023-09-19T09:47:42;17.40;99.90
15717;DHT22;7960;50.908;4.204;2023-09-19T09:50:23;17.50;99.90
15717;DHT22;7960;50.908;4.204;2023-09-19T09:52:55;17.40;99.90
15717;DHT22;7960;50.908;4.204;2023-09-19T09:55:29;17.50;99.90
15717;DHT22;7960;50.908;4.204;2023-09-19T09:58:17;17.50;99.90
15717;DHT22;7960;50.908;4.204;2023-09-19T10:00:52;17.70;99.90
15717;DHT22;7960;50.908;4.204;2023-09-19T10:03:31;17.70;99.90
15717;DHT22;7960;50.908;4.204;2023-09-19T10:06:00;17.90;99.90
15717;DHT22;7960;50.908;4.204;2023-09-19T10:08:37;18.00;99.90
15717;DHT22;7960;50.908;4.204;2023-09-19T10:11:16;18.20;99.90
15717;DHT22;7960;50.908;4.204;2023-09-19T10:13:46;18.40;99.90
15717;DHT22;7960;50.908;4.204;2023-09-19T10:16:13;18.40;99.90
15717;DHT22;7960;50.908;4.204;2023-09-19T10:18:45;18.70;99.90
15717;DHT22;7960;50.908;4.204;2023-09-19T10:21:15;18.70;99.90
15717;DHT22;7960;50.908;4.204;2023-09-19T10:23:48;18.80;99.90
15717;DHT22;7960;50.908;4.204;2023-09-19T10:26:19;18.90;99.90
15717;DHT22;7960;50.908;4.204;2023-09-19T10:28:50;18.80;99.90
15717;DHT22;7960;50.908;4.204;2023-09-19T10:31:19;18.80;99.90
15717;DHT22;7960;50.908;4.204;2023-09-19T10:33:47;19.00;99.90
15717;DHT22;7960;50.908;4.204;2023-09-19T10:36:16;19.00;99.90
15717;DHT22;7960;50.908;4.204;2023-09-19T10:38:45;19.10;99.90
15717;DHT22;7960;50.908;4.204;2023-09-19T10:41:16;19.10;99.90
15717;DHT22;7960;50.908;4.204;2023-09-19T10:43:45;19.10;99.90
15717;DHT22;7960;50.908;4.204;2023-09-19T10:46:14;19.10;99.90
15717;DHT22;7960;50.908;4.204;2023-09-19T10:48:42;19.10;99.70
15717;DHT22;7960;50.908;4.204;2023-09-19T10:51:16;19.10;99.60
15717;DHT22;7960;50.908;4.204;2023-09-19T10:53:52;19.20;99.40
15717;DHT22;7960;50.908;4.204;2023-09-19T10:56:25;19.30;99.60
15717;DHT22;7960;50.908;4.204;2023-09-19T10:59:07;19.30;99.10
15717;DHT22;7960;50.908;4.204;2023-09-19T11:01:45;19.50;99.10
15717;DHT22;7960;50.908;4.204;2023-09-19T11:04:24;19.50;98.80
15717;DHT22;7960;50.908;4.204;2023-09-19T11:07:11;19.70;98.90
15717;DHT22;7960;50.908;4.204;2023-09-19T11:09:46;19.70;98.70
15717;DHT22;7960;50.908;4.204;2023-09-19T11:12:49;19.80;99.00
15717;DHT22;7960;50.908;4.204;2023-09-19T11:18:53;20.00;98.00
15717;DHT22;7960;50.908;4.204;2023-09-19T11:21:45;20.00;98.10
15717;DHT22;7960;50.908;4.204;2023-09-19T11:24:32;20.10;98.30
15717;DHT22;7960;50.908;4.204;2023-09-19T11:27:13;19.80;97.60
15717;DHT22;7960;50.908;4.204;2023-09-19T11:29:42;19.70;98.00
15717;DHT22;7960;50.908;4.204;2023-09-19T11:32:09;19.70;98.20
15717;DHT22;7960;50.908;4.204;2023-09-19T11:34:47;19.80;98.10
15717;DHT22;7960;50.908;4.204;2023-09-19T11:40:33;19.60;97.80
15717;DHT22;7960;50.908;4.204;2023-09-19T11:46:07;19.60;98.30
15717;DHT22;7960;50.908;4.204;2023-09-19T11:48:41;19.60;98.10
15717;DHT22;7960;50.908;4.204;2023-09-19T11:51:11;19.70;98.10
15717;DHT22;7960;50.908;4.204;2023-09-19T11:53:45;19.90;98.10
15717;DHT22;7960;50.908;4.204;2023-09-19T11:56:14;19.90;97.80
15717;DHT22;7960;50.908;4.204;2023-09-19T11:58:43;19.80;97.20
15717;DHT22;7960;50.908;4.204;2023-09-19T12:01:22;19.80;97.30
15717;DHT22;7960;50.908;4.204;2023-09-19T12:03:53;19.80;97.40
15717;DHT22;7960;50.908;4.204;2023-09-19T12:06:20;19.80;97.50
15717;DHT22;7960;50.908;4.204;2023-09-19T12:08:48;19.90;97.50
15717;DHT22;7960;50.908;4.204;2023-09-19T12:11:17;19.90;97.50
15717;DHT22;7960;50.908;4.204;2023-09-19T12:13:46;19.80;97.50
15717;DHT22;7960;50.908;4.204;2023-09-19T12:16:17;19.80;97.70
15717;DHT22;7960;50.908;4.204;2023-09-19T12:18:48;19.90;97.90
15717;DHT22;7960;50.908;4.204;2023-09-19T12:21:26;20.00;97.30
15717;DHT22;7960;50.908;4.204;2023-09-19T12:24:06;19.90;96.80
15717;DHT22;7960;50.908;4.204;2023-09-19T12:26:39;19.90;96.70
15717;DHT22;7960;50.908;4.204;2023-09-19T12:29:15;19.80;96.60
15717;DHT22;7960;50.908;4.204;2023-09-19T12:31:52;19.90;96.90
15717;DHT22;7960;50.908;4.204;2023-09-19T12:34:25;19.80;96.70
15717;DHT22;7960;50.908;4.204;2023-09-19T12:37:09;19.80;96.80
15717;DHT22;7960;50.908;4.204;2023-09-19T12:39:42;19.80;97.10
15717;DHT22;7960;50.908;4.204;2023-09-19T12:42:13;20.10;97.20
15717;DHT22;7960;50.908;4.204;2023-09-19T12:44:41;20.00;96.60
15717;DHT22;7960;50.908;4.204;2023-09-19T12:47:15;20.00;97.00
15717;DHT22;7960;50.908;4.204;2023-09-19T12:50:13;20.30;97.10
15717;DHT22;7960;50.908;4.204;2023-09-19T12:52:45;20.60;96.70
15717;DHT22;7960;50.908;4.204;2023-09-19T12:55:26;20.60;96.60
15717;DHT22;7960;50.908;4.204;2023-09-19T12:58:07;20.40;96.60
15717;DHT22;7960;50.908;4.204;2023-09-19T13:03:15;20.00;96.50
15717;DHT22;7960;50.908;4.204;2023-09-19T13:05:48;19.80;96.70
15717;DHT22;7960;50.908;4.204;2023-09-19T13:08:20;19.80;97.00
15717;DHT22;7960;50.908;4.204;2023-09-19T13:11:07;19.80;97.40
15717;DHT22;7960;50.908;4.204;2023-09-19T13:16:07;19.90;98.00
15717;DHT22;7960;50.908;4.204;2023-09-19T13:18:47;20.00;97.70
15717;DHT22;7960;50.908;4.204;2023-09-19T13:23:53;20.10;97.60
15717;DHT22;7960;50.908;4.204;2023-09-19T13:26:24;20.20;97.70
15717;DHT22;7960;50.908;4.204;2023-09-19T13:28:51;20.10;97.70
15717;DHT22;7960;50.908;4.204;2023-09-19T13:31:18;20.00;97.60
15717;DHT22;7960;50.908;4.204;2023-09-19T13:33:47;20.00;97.80
15717;DHT22;7960;50.908;4.204;2023-09-19T13:36:16;20.10;97.90
15717;DHT22;7960;50.908;4.204;2023-09-19T13:38:44;19.90;97.60
15717;DHT22;7960;50.908;4.204;2023-09-19T14:08:22;19.90;98.50
15717;DHT22;7960;50.908;4.204;2023-09-19T14:10:50;19.90;98.20
15717;DHT22;7960;50.908;4.204;2023-09-19T14:15:46;20.00;98.30
15717;DHT22;7960;50.908;4.204;2023-09-19T14:18:13;20.20;97.70
15717;DHT22;7960;50.908;4.204;2023-09-19T14:20:40;20.20;97.80
15717;DHT22;7960;50.908;4.204;2023-09-19T14:23:07;20.20;97.80
15717;DHT22;7960;50.908;4.204;2023-09-19T14:28:05;20.20;97.90
15717;DHT22;7960;50.908;4.204;2023-09-19T14:33:03;20.10;97.70
15717;DHT22;7960;50.908;4.204;2023-09-19T14:35:30;20.10;97.90
15717;DHT22;7960;50.908;4.204;2023-09-19T14:37:57;20.00;98.00
15717;DHT22;7960;50.908;4.204;2023-09-19T14:40:24;19.90;98.10
15717;DHT22;7960;50.908;4.204;2023-09-19T14:42:54;19.80;98.30
15717;DHT22;7960;50.908;4.204;2023-09-19T14:45:21;19.80;98.70
15717;DHT22;7960;50.908;4.204;2023-09-19T14:47:48;19.70;98.60
15717;DHT22;7960;50.908;4.204;2023-09-19T14:50:17;19.60;98.80
15717;DHT22;7960;50.908;4.204;2023-09-19T14:52:44;19.50;98.80
15717;DHT22;7960;50.908;4.204;2023-09-19T14:55:11;19.50;99.10
15717;DHT22;7960;50.908;4.204;2023-09-19T14:57:39;19.50;99.20
15717;DHT22;7960;50.908;4.204;2023-09-19T15:00:10;19.50;99.20
15717;DHT22;7960;50.908;4.204;2023-09-19T15:02:38;19.40;99.20
15717;DHT22;7960;50.908;4.204;2023-09-19T15:05:06;19.40;99.30
15717;DHT22;7960;50.908;4.204;2023-09-19T15:07:35;19.30;99.40
15717;DHT22;7960;50.908;4.204;2023-09-19T15:10:03;19.30;99.60
15717;DHT22;7960;50.908;4.204;2023-09-19T15:12:32;19.30;99.70
15717;DHT22;7960;50.908;4.204;2023-09-19T15:15:02;19.30;99.80
15717;DHT22;7960;50.908;4.204;2023-09-19T15:17:32;19.20;99.70
15717;DHT22;7960;50.908;4.204;2023-09-19T15:19:59;19.20;99.70
15717;DHT22;7960;50.908;4.204;2023-09-19T15:22:27;19.20;99.90
15717;DHT22;7960;50.908;4.204;2023-09-19T15:24:54;19.10;99.90
15717;DHT22;7960;50.908;4.204;2023-09-19T15:27:24;19.00;99.90
15717;DHT22;7960;50.908;4.204;2023-09-19T15:29:51;19.10;99.90
15717;DHT22;7960;50.908;4.204;2023-09-19T15:32:18;19.10;99.90
15717;DHT22;7960;50.908;4.204;2023-09-19T15:34:48;19.00;99.90
15717;DHT22;7960;50.908;4.204;2023-09-19T15:37:14;19.00;99.90
15717;DHT22;7960;50.908;4.204;2023-09-19T15:39:42;19.00;99.90
15717;DHT22;7960;50.908;4.204;2023-09-19T15:42:10;19.00;99.90
15717;DHT22;7960;50.908;4.204;2023-09-19T15:44:37;19.00;99.90
15717;DHT22;7960;50.908;4.204;2023-09-19T15:47:04;19.00;99.90
15717;DHT22;7960;50.908;4.204;2023-09-19T15:49:31;19.00;99.90
15717;DHT22;7960;50.908;4.204;2023-09-19T15:52:00;19.00;99.90
15717;DHT22;7960;50.908;4.204;2023-09-19T15:54:26;19.00;99.90
15717;DHT22;7960;50.908;4.204;2023-09-19T15:56:55;19.00;99.90
15717;DHT22;7960;50.908;4.204;2023-09-19T15:59:22;18.90;99.90
15717;DHT22;7960;50.908;4.204;2023-09-19T16:01:49;18.90;99.90
15717;DHT22;7960;50.908;4.204;2023-09-19T16:04:16;18.90;99.90
15717;DHT22;7960;50.908;4.204;2023-09-19T16:06:43;18.90;99.90
15717;DHT22;7960;50.908;4.204;2023-09-19T16:09:12;18.90;99.90
15717;DHT22;7960;50.908;4.204;2023-09-19T16:11:40;18.90;99.90
15717;DHT22;7960;50.908;4.204;2023-09-19T16:14:07;18.90;99.90
15717;DHT22;7960;50.908;4.204;2023-09-19T16:16:35;18.90;99.90
15717;DHT22;7960;50.908;4.204;2023-09-19T16:19:03;18.90;99.90
15717;DHT22;7960;50.908;4.204;2023-09-19T16:21:31;18.90;99.90
15717;DHT22;7960;50.908;4.204;2023-09-19T16:23:59;18.90;99.90
15717;DHT22;7960;50.908;4.204;2023-09-19T16:26:28;18.90;99.90
15717;DHT22;7960;50.908;4.204;2023-09-19T16:28:56;18.80;99.90
15717;DHT22;7960;50.908;4.204;2023-09-19T16:31:26;18.80;99.90
15717;DHT22;7960;50.908;4.204;2023-09-19T16:33:53;18.80;99.90
15717;DHT22;7960;50.908;4.204;2023-09-19T16:36:20;18.80;99.90
15717;DHT22;7960;50.908;4.204;2023-09-19T16:38:48;18.70;99.90
15717;DHT22;7960;50.908;4.204;2023-09-19T16:41:16;18.70;99.90
15717;DHT22;7960;50.908;4.204;2023-09-19T16:43:46;18.70;99.90
15717;DHT22;7960;50.908;4.204;2023-09-19T16:46:13;18.70;99.90
15717;DHT22;7960;50.908;4.204;2023-09-19T16:48:42;18.70;99.90
15717;DHT22;7960;50.908;4.204;2023-09-19T16:51:13;18.70;99.90
15717;DHT22;7960;50.908;4.204;2023-09-19T16:53:41;18.70;99.90
15717;DHT22;7960;50.908;4.204;2023-09-19T16:56:11;18.60;99.90